Time;durP1;ratioP1;P1;durP2;ratioP2;P2;SDS_P1;SDS_P2;PMS_P1;PMS_P2;Temp;Humidity;BMP_temperature;BMP_pressure;BME280_temperature;BME280_humidity;BME280_pressure;Samples;Min_cycle;Max_cycle;Signal;HPM_P1;HPM_P2
2021/09/26 00:01:58;;;;;;;7.95;2.65;;;;;;;16.61;67.42;100401.88;1736459;81;21416;-60
2021/09/26 00:04:24;;;;;;;6.90;2.27;;;;;;;16.58;67.54;100402.23;1745799;82;21091;-59
2021/09/26 00:06:50;;;;;;;6.60;1.95;;;;;;;16.56;67.62;100406.84;1738850;82;21023;-59
2021/09/26 00:09:17;;;;;;;4.87;2.10;;;;;;;16.59;67.58;100405.20;1746107;80;21044;-59
2021/09/26 00:11:43;;;;;;;5.53;2.15;;;;;;;16.64;67.43;100406.87;1744425;81;21019;-60
2021/09/26 00:14:09;;;;;;;10.60;2.70;;;;;;;16.63;67.46;100405.23;1729389;82;21484;-59
2021/09/26 00:16:36;;;;;;;5.62;2.33;;;;;;;16.64;67.54;100405.55;1744816;80;21099;-59
2021/09/26 00:19:03;;;;;;;4.85;2.58;;;;;;;16.63;67.58;100408.70;1745520;80;21127;-59
2021/09/26 00:21:30;;;;;;;4.85;2.50;;;;;;;16.61;67.54;100407.19;1738885;80;22489;-59
2021/09/26 00:23:57;;;;;;;5.62;2.27;;;;;;;16.61;67.61;100408.52;1731043;81;21153;-59
2021/09/26 00:26:24;;;;;;;4.08;1.77;;;;;;;16.64;67.43;100413.04;1740394;80;21095;-60
2021/09/26 00:28:50;;;;;;;5.45;2.30;;;;;;;16.65;67.37;100415.19;1710575;82;21495;-59
2021/09/26 00:31:16;;;;;;;6.90;2.90;;;;;;;16.64;67.42;100416.17;1698433;82;21579;-59
2021/09/26 00:33:43;;;;;;;5.47;2.95;;;;;;;16.61;67.57;100415.16;1693552;83;21170;-59
2021/09/26 00:36:09;;;;;;;5.65;2.75;;;;;;;16.59;67.59;100413.17;1698183;83;21139;-60
2021/09/26 00:38:35;;;;;;;5.80;2.55;;;;;;;16.55;67.63;100419.30;1713191;82;21533;-59
2021/09/26 00:41:02;;;;;;;6.03;2.75;;;;;;;16.52;67.72;100420.47;1685356;84;21101;-59
2021/09/26 00:43:28;;;;;;;5.15;2.25;;;;;;;16.55;67.67;100419.81;1686149;84;21103;-59
2021/09/26 00:45:56;;;;;;;5.37;2.33;;;;;;;16.55;67.68;100425.12;1684021;84;21142;-60
2021/09/26 00:48:22;;;;;;;6.40;2.65;;;;;;;16.50;67.71;100429.58;1742438;81;21541;-59
2021/09/26 00:50:48;;;;;;;7.03;2.83;;;;;;;16.42;67.89;100429.55;1741568;81;21059;-60
2021/09/26 00:53:20;;;;;;;5.15;2.35;;;;;;;16.38;68.06;100423.73;1740539;81;21698;-59
2021/09/26 00:55:47;;;;;;;6.22;2.37;;;;;;;16.32;68.09;100429.19;1741762;81;21080;-60
2021/09/26 00:58:14;;;;;;;4.92;2.10;;;;;;;16.28;68.19;100434.46;1705548;82;22897;-60
2021/09/26 01:00:40;;;;;;;6.47;2.70;;;;;;;16.26;68.22;100427.16;1744255;81;21546;-59
2021/09/26 01:03:06;;;;;;;7.05;2.95;;;;;;;16.26;68.27;100435.12;1746561;81;21286;-59
2021/09/26 01:05:33;;;;;;;5.50;2.75;;;;;;;16.23;68.39;100432.78;1741557;81;22315;-60
2021/09/26 01:08:23;;;;;;;6.65;2.37;;;;;;;16.21;68.58;100431.29;1746157;81;21054;-60
2021/09/26 01:11:14;;;;;;;7.20;3.35;;;;;;;16.17;68.76;100434.73;1738212;81;21112;-59
2021/09/26 01:13:55;;;;;;;4.67;2.40;;;;;;;16.13;68.97;100442.19;1737376;81;21044;-60
2021/09/26 01:16:30;;;;;;;5.87;2.85;;;;;;;16.12;69.07;100452.95;1743908;81;21509;-57
2021/09/26 01:19:32;;;;;;;6.08;2.55;;;;;;;16.12;69.27;100444.52;1743345;81;21051;-59
2021/09/26 01:22:01;;;;;;;6.33;2.90;;;;;;;16.14;69.35;100444.36;1707874;82;21070;-59
2021/09/26 01:24:52;;;;;;;6.70;3.17;;;;;;;16.13;69.36;100451.47;1747924;80;21118;-60
2021/09/26 01:27:51;;;;;;;5.50;2.55;;;;;;;16.09;69.69;100455.95;1744856;80;21155;-59
2021/09/26 01:30:37;;;;;;;5.28;2.72;;;;;;;16.00;69.88;100453.72;1742342;80;21660;-59
2021/09/26 01:33:41;;;;;;;6.35;2.95;;;;;;;16.03;69.84;100462.70;1750156;81;21054;-59
2021/09/26 01:36:37;;;;;;;5.50;3.15;;;;;;;16.07;69.80;100460.08;1716263;80;21408;-59
2021/09/26 01:39:19;;;;;;;7.17;2.87;;;;;;;16.10;69.71;100462.40;1741438;81;21151;-59
2021/09/26 01:42:16;;;;;;;7.17;3.02;;;;;;;16.13;69.67;100464.74;1706530;82;21039;-60
2021/09/26 01:44:57;;;;;;;6.15;3.05;;;;;;;16.10;69.63;100465.05;1736914;80;21093;-59
2021/09/26 01:47:34;;;;;;;5.60;2.92;;;;;;;16.05;69.68;100469.18;1722142;81;21336;-59
2021/09/26 01:50:04;;;;;;;5.33;2.47;;;;;;;16.03;69.69;100468.00;1746741;80;21067;-62
2021/09/26 01:52:33;;;;;;;6.03;3.12;;;;;;;16.11;69.48;100472.55;1749977;80;21105;-59
2021/09/26 01:54:59;;;;;;;5.33;2.70;;;;;;;16.14;69.32;100470.91;1743124;80;21061;-60
2021/09/26 01:57:26;;;;;;;5.78;2.70;;;;;;;16.11;69.23;100480.00;1744086;80;21449;-59
2021/09/26 01:59:55;;;;;;;6.10;2.80;;;;;;;16.04;69.36;100479.44;1749636;81;21057;-59
2021/09/26 02:02:24;;;;;;;8.75;3.10;;;;;;;15.99;69.43;100489.22;1747464;80;21547;-59
2021/09/26 02:04:59;;;;;;;6.40;2.90;;;;;;;15.93;69.55;100490.66;1740908;81;21119;-59
2021/09/26 02:07:24;;;;;;;5.37;2.45;;;;;;;15.95;69.56;100488.70;1746338;80;21127;-59
2021/09/26 02:09:50;;;;;;;7.87;2.85;;;;;;;16.04;69.27;100498.02;1741058;81;21576;-59
2021/09/26 02:12:17;;;;;;;7.10;2.87;;;;;;;16.09;69.10;100492.61;1746090;80;21005;-60
2021/09/26 02:14:43;;;;;;;6.95;3.12;;;;;;;16.07;69.04;100503.02;1748469;81;21554;-60
2021/09/26 02:17:10;;;;;;;5.00;2.72;;;;;;;16.00;69.19;100498.01;1740431;80;21138;-60
2021/09/26 02:19:37;;;;;;;5.28;3.00;;;;;;;15.94;69.37;100498.97;1742325;80;22577;-59
2021/09/26 02:22:05;;;;;;;6.47;3.15;;;;;;;15.86;69.63;100502.89;1741305;80;21016;-60
2021/09/26 02:24:34;;;;;;;5.67;2.72;;;;;;;15.84;69.75;100505.37;1745693;82;21039;-59
2021/09/26 02:27:00;;;;;;;4.92;2.45;;;;;;;15.84;69.75;100499.56;1764990;80;21102;-59
2021/09/26 02:29:26;;;;;;;7.60;3.10;;;;;;;15.82;69.78;100503.34;1758016;80;21109;-59
2021/09/26 02:31:53;;;;;;;8.68;3.10;;;;;;;15.83;69.74;100505.02;1766222;80;21600;-60
2021/09/26 02:34:19;;;;;;;6.87;2.67;;;;;;;15.82;69.52;100508.65;1769042;80;21039;-60
2021/09/26 02:36:46;;;;;;;5.53;2.80;;;;;;;15.82;69.11;100505.52;1718055;82;21845;-60
2021/09/26 02:39:13;;;;;;;5.55;2.67;;;;;;;15.84;68.67;100510.68;1766023;80;21150;-59
2021/09/26 02:41:59;;;;;;;5.83;2.85;;;;;;;15.83;68.34;100510.33;1766685;80;21058;-59
2021/09/26 02:44:34;;;;;;;7.65;2.95;;;;;;;15.82;68.23;100510.83;1759266;80;21574;-60
2021/09/26 02:47:05;;;;;;;8.05;3.12;;;;;;;15.79;68.32;100515.94;1740117;80;21581;-60
2021/09/26 02:49:31;;;;;;;5.47;2.92;;;;;;;15.76;68.59;100522.88;1739023;80;21054;-59
2021/09/26 02:51:58;;;;;;;5.70;2.85;;;;;;;15.70;68.91;100522.14;1761847;80;21024;-59
2021/09/26 02:54:24;;;;;;;8.90;3.37;;;;;;;15.63;68.94;100526.88;1702092;83;21068;-60
2021/09/26 02:56:50;;;;;;;6.15;3.05;;;;;;;15.57;69.06;100527.82;1740038;80;21083;-59
2021/09/26 02:59:19;;;;;;;7.87;3.65;;;;;;;15.55;68.85;100528.47;1765358;80;21055;-59
2021/09/26 03:01:51;;;;;;;5.85;3.10;;;;;;;15.51;68.89;100528.42;1768294;80;21054;-59
2021/09/26 03:04:18;;;;;;;7.58;3.70;;;;;;;15.51;68.78;100524.44;1765424;80;21929;-60
2021/09/26 03:06:44;;;;;;;6.12;2.80;;;;;;;15.51;68.79;100535.55;1698256;82;21096;-59
2021/09/26 03:09:11;;;;;;;6.15;3.05;;;;;;;15.50;68.73;100543.16;1759557;80;22352;-60
2021/09/26 03:11:37;;;;;;;8.28;3.55;;;;;;;15.46;68.71;100547.11;1725578;81;21559;-59
2021/09/26 03:14:04;;;;;;;7.45;2.90;;;;;;;15.35;68.87;100554.80;1754353;80;21734;-59
2021/09/26 03:16:30;;;;;;;5.92;2.92;;;;;;;15.23;69.04;100570.05;1693777;82;21126;-64
2021/09/26 03:18:57;;;;;;;5.65;2.80;;;;;;;15.15;69.26;100569.98;1750643;80;21142;-60
2021/09/26 03:21:23;;;;;;;7.45;2.70;;;;;;;15.12;69.33;100563.14;1703239;83;21145;-59
2021/09/26 03:23:50;;;;;;;5.67;2.75;;;;;;;15.21;69.23;100566.72;1766408;80;21584;-59
2021/09/26 03:26:16;;;;;;;5.28;2.25;;;;;;;15.30;68.86;100563.66;1761631;80;21060;-58
2021/09/26 03:28:42;;;;;;;7.58;3.17;;;;;;;15.32;68.65;100562.54;1733643;82;21549;-59
2021/09/26 03:31:09;;;;;;;8.43;3.08;;;;;;;15.29;68.51;100562.02;1768284;80;21196;-58
2021/09/26 03:33:35;;;;;;;6.90;3.02;;;;;;;15.26;68.54;100564.45;1750994;80;22208;-59
2021/09/26 03:36:01;;;;;;;11.00;3.25;;;;;;;15.24;68.33;100566.42;1761079;80;21023;-59
2021/09/26 03:38:28;;;;;;;12.23;2.85;;;;;;;15.23;68.29;100555.47;1764548;80;21055;-58
2021/09/26 03:40:54;;;;;;;5.25;2.80;;;;;;;15.27;68.06;100562.16;1765189;80;20995;-58
2021/09/26 03:43:20;;;;;;;6.50;2.58;;;;;;;15.31;68.03;100566.66;1762895;80;21052;-59
2021/09/26 03:45:50;;;;;;;8.05;3.58;;;;;;;15.30;67.99;100567.64;1760834;80;21073;-58
2021/09/26 03:48:15;;;;;;;8.85;3.47;;;;;;;15.21;67.96;100568.90;1762858;80;21076;-58
2021/09/26 03:50:41;;;;;;;6.55;2.67;;;;;;;15.13;68.17;100575.90;1750949;80;21032;-58
2021/09/26 03:53:07;;;;;;;9.00;3.40;;;;;;;15.06;68.30;100571.67;1766530;80;21525;-59
2021/09/26 03:55:34;;;;;;;5.97;2.58;;;;;;;15.07;68.29;100573.86;1699427;83;21048;-58
2021/09/26 03:58:00;;;;;;;5.87;3.00;;;;;;;15.04;68.18;100574.47;1749774;80;20995;-59
2021/09/26 04:00:27;;;;;;;9.80;2.85;;;;;;;14.99;68.37;100577.23;1705194;82;21099;-59
2021/09/26 04:02:53;;;;;;;6.12;2.67;;;;;;;14.92;68.59;100580.95;1751677;80;21081;-58
2021/09/26 04:05:19;;;;;;;8.73;3.20;;;;;;;14.80;68.78;100580.81;1762316;79;21043;-59
2021/09/26 04:07:46;;;;;;;4.55;2.60;;;;;;;14.71;69.00;100582.52;1760765;80;21053;-58
2021/09/26 04:10:12;;;;;;;6.20;2.50;;;;;;;14.68;69.19;100589.42;1768167;80;20995;-61
2021/09/26 04:12:40;;;;;;;8.68;2.77;;;;;;;14.68;69.19;100591.57;1762993;80;21015;-58
2021/09/26 04:15:08;;;;;;;9.15;3.60;;;;;;;14.68;69.25;100595.55;1764243;80;21490;-58
2021/09/26 04:17:34;;;;;;;5.87;2.62;;;;;;;14.66;69.30;100601.48;1757286;80;21068;-58
2021/09/26 04:20:02;;;;;;;11.18;3.35;;;;;;;14.60;69.52;100600.72;1762225;80;21443;-58
2021/09/26 04:22:29;;;;;;;9.15;3.62;;;;;;;14.52;69.85;100606.36;1763189;80;21062;-58
2021/09/26 04:24:55;;;;;;;6.45;2.60;;;;;;;14.45;69.98;100602.13;1703889;84;21045;-58
2021/09/26 04:27:21;;;;;;;6.62;3.00;;;;;;;14.44;70.01;100595.16;1757461;80;21042;-59
2021/09/26 04:29:48;;;;;;;9.10;3.10;;;;;;;14.47;69.94;100601.48;1771374;80;21411;-58
2021/09/26 04:32:16;;;;;;;8.50;3.30;;;;;;;14.49;69.90;100611.44;1759955;80;23219;-58
2021/09/26 04:34:42;;;;;;;6.53;2.75;;;;;;;14.49;69.95;100607.47;1759414;80;21073;-58
2021/09/26 04:37:08;;;;;;;6.55;3.50;;;;;;;14.44;70.05;100606.59;1698391;83;21043;-58
2021/09/26 04:39:35;;;;;;;11.73;3.52;;;;;;;14.40;70.18;100605.70;1769816;80;21094;-57
2021/09/26 04:42:01;;;;;;;6.37;2.62;;;;;;;14.37;70.21;100609.95;1765537;80;21419;-61
2021/09/26 04:44:28;;;;;;;7.50;3.12;;;;;;;14.40;70.23;100616.28;1757249;80;21104;-59
2021/09/26 04:46:54;;;;;;;6.37;2.62;;;;;;;14.46;70.15;100614.41;1765026;80;21082;-62
2021/09/26 04:49:21;;;;;;;8.08;3.20;;;;;;;14.50;70.08;100621.89;1760013;80;20983;-61
2021/09/26 04:51:47;;;;;;;5.75;3.10;;;;;;;14.53;70.07;100616.81;1760044;80;21059;-62
2021/09/26 04:54:13;;;;;;;6.17;2.83;;;;;;;14.52;70.08;100613.81;1765614;79;21157;-61
2021/09/26 04:56:40;;;;;;;7.53;2.95;;;;;;;14.52;70.15;100624.41;1762720;80;21100;-62
2021/09/26 04:59:06;;;;;;;7.53;2.75;;;;;;;14.50;70.22;100625.86;1766786;80;21072;-55
2021/09/26 05:01:32;;;;;;;11.55;2.70;;;;;;;14.52;70.26;100628.88;1758651;80;21098;-58
2021/09/26 05:03:59;;;;;;;6.78;3.05;;;;;;;14.56;70.03;100625.80;1758832;80;21111;-58
2021/09/26 05:06:25;;;;;;;6.58;2.58;;;;;;;14.63;69.57;100617.66;1758581;79;21023;-58
2021/09/26 05:08:51;;;;;;;6.67;2.98;;;;;;;14.65;69.54;100626.28;1769775;80;23325;-58
2021/09/26 05:11:18;;;;;;;9.03;3.22;;;;;;;14.65;69.56;100625.46;1763807;80;21507;-57
2021/09/26 05:13:44;;;;;;;6.97;3.20;;;;;;;14.66;69.58;100627.14;1705505;82;21593;-57
2021/09/26 05:16:11;;;;;;;6.97;3.08;;;;;;;14.70;69.41;100638.28;1712914;82;21099;-57
2021/09/26 05:18:38;;;;;;;6.53;3.42;;;;;;;14.75;69.26;100632.06;1702829;82;21122;-58
2021/09/26 05:21:05;;;;;;;7.40;2.87;;;;;;;14.86;68.95;100638.48;1754530;80;21061;-57
2021/09/26 05:23:32;;;;;;;8.58;3.72;;;;;;;14.96;68.70;100641.11;1761107;80;21441;-57
2021/09/26 05:25:58;;;;;;;7.42;3.08;;;;;;;15.02;68.36;100641.36;1752358;80;21050;-58
2021/09/26 05:28:24;;;;;;;7.85;3.60;;;;;;;15.03;67.94;100650.17;1745093;80;21008;-57
2021/09/26 05:30:51;;;;;;;7.58;3.17;;;;;;;14.99;68.04;100639.00;1725799;80;21017;-57
2021/09/26 05:33:17;;;;;;;8.50;3.12;;;;;;;15.04;67.94;100647.84;1739961;80;21496;-57
2021/09/26 05:35:43;;;;;;;8.03;2.83;;;;;;;15.12;67.80;100653.76;1737785;80;21065;-56
2021/09/26 05:38:10;;;;;;;8.05;3.10;;;;;;;15.18;67.04;100654.48;1736806;80;21583;-57
2021/09/26 05:40:36;;;;;;;8.90;3.67;;;;;;;15.22;67.24;100655.88;1735394;80;21088;-57
2021/09/26 05:43:02;;;;;;;8.35;3.55;;;;;;;15.17;67.35;100664.76;1738653;80;21597;-57
2021/09/26 05:45:29;;;;;;;8.68;3.30;;;;;;;15.15;67.50;100670.20;1734645;80;21053;-56
2021/09/26 05:47:55;;;;;;;7.35;2.70;;;;;;;15.20;66.58;100665.80;1732501;80;21661;-57
2021/09/26 05:50:22;;;;;;;7.72;3.30;;;;;;;15.26;66.58;100663.86;1742543;80;21034;-57
2021/09/26 05:52:49;;;;;;;9.18;3.22;;;;;;;15.28;66.43;100669.88;1736344;80;21080;-57
2021/09/26 05:55:16;;;;;;;8.38;3.50;;;;;;;15.27;66.41;100673.50;1744663;80;21026;-57
2021/09/26 05:57:42;;;;;;;6.25;3.02;;;;;;;15.27;65.96;100670.84;1740563;80;21143;-57
2021/09/26 06:00:10;;;;;;;7.67;3.17;;;;;;;15.31;64.95;100674.03;1743503;80;21050;-62
2021/09/26 06:02:39;;;;;;;9.05;2.80;;;;;;;15.31;64.48;100678.84;1735696;80;21115;-60
2021/09/26 06:05:07;;;;;;;9.78;3.30;;;;;;;15.31;64.64;100670.06;1742071;82;21128;-64
2021/09/26 06:07:34;;;;;;;11.53;3.00;;;;;;;15.29;64.37;100683.95;1740025;80;21145;-61
2021/09/26 06:10:02;;;;;;;8.98;2.58;;;;;;;15.23;64.32;100678.27;1741784;80;21759;-63
2021/09/26 06:12:28;;;;;;;8.30;3.47;;;;;;;15.19;64.13;100683.99;1743694;80;21595;-57
2021/09/26 06:14:54;;;;;;;10.85;3.70;;;;;;;15.23;64.29;100691.98;1743552;80;21111;-56
2021/09/26 06:17:21;;;;;;;7.72;2.77;;;;;;;15.27;64.23;100696.03;1739519;80;21117;-56
2021/09/26 06:19:47;;;;;;;8.90;2.85;;;;;;;15.30;64.30;100687.80;1739750;80;21086;-55
2021/09/26 06:22:15;;;;;;;9.45;3.20;;;;;;;15.33;64.11;100695.46;1740654;80;21160;-57
2021/09/26 06:24:41;;;;;;;6.72;2.50;;;;;;;15.31;63.69;100688.12;1739728;80;20998;-57
2021/09/26 06:27:08;;;;;;;6.80;2.50;;;;;;;15.36;63.56;100695.64;1748847;80;22405;-55
2021/09/26 06:29:35;;;;;;;10.58;3.52;;;;;;;15.47;63.75;100701.27;1757382;80;21521;-54
2021/09/26 06:32:01;;;;;;;9.78;3.40;;;;;;;15.55;63.61;100696.89;1756142;80;21082;-56
2021/09/26 06:34:27;;;;;;;9.35;2.90;;;;;;;15.59;62.59;100690.79;1758050;80;21142;-55
2021/09/26 06:36:54;;;;;;;7.50;2.80;;;;;;;15.59;62.42;100694.27;1758399;80;21074;-55
2021/09/26 06:39:22;;;;;;;11.85;3.15;;;;;;;15.57;62.57;100696.74;1765360;80;21544;-55
2021/09/26 06:41:48;;;;;;;8.05;2.35;;;;;;;15.57;62.03;100701.55;1761024;80;21047;-55
2021/09/26 06:44:14;;;;;;;8.03;2.47;;;;;;;15.65;61.90;100695.98;1761741;80;21554;-53
2021/09/26 06:46:41;;;;;;;8.03;2.65;;;;;;;15.73;61.56;100700.06;1762573;80;21089;-54
2021/09/26 06:49:07;;;;;;;9.83;3.08;;;;;;;15.75;61.16;100704.28;1762716;80;21110;-56
2021/09/26 06:51:34;;;;;;;8.03;3.08;;;;;;;15.75;61.62;100703.39;1762145;80;21571;-54
2021/09/26 06:54:00;;;;;;;8.43;2.42;;;;;;;15.73;61.62;100711.49;1763701;80;21597;-57
2021/09/26 06:56:26;;;;;;;12.95;3.58;;;;;;;15.69;61.80;100709.31;1765423;79;21056;-56
2021/09/26 06:58:53;;;;;;;6.75;2.58;;;;;;;15.66;61.90;100713.08;1757707;80;22467;-55
2021/09/26 07:01:20;;;;;;;6.60;2.70;;;;;;;15.69;61.85;100712.79;1766198;80;21102;-55
2021/09/26 07:03:46;;;;;;;6.83;2.20;;;;;;;15.75;61.70;100716.22;1760295;80;22452;-56
2021/09/26 07:06:12;;;;;;;12.50;3.05;;;;;;;15.77;61.55;100717.40;1762019;80;21078;-55
2021/09/26 07:08:39;;;;;;;6.97;2.47;;;;;;;15.82;61.37;100707.64;1723081;82;21039;-57
2021/09/26 07:11:06;;;;;;;9.83;3.08;;;;;;;15.87;61.00;100712.86;1752601;80;21106;-56
2021/09/26 07:13:32;;;;;;;10.63;2.70;;;;;;;15.91;60.52;100712.07;1763163;80;21059;-55
2021/09/26 07:15:58;;;;;;;7.97;2.58;;;;;;;15.90;59.61;100709.06;1759712;80;21122;-56
2021/09/26 07:18:25;;;;;;;10.30;4.12;;;;;;;15.89;59.22;100712.72;1698525;83;21116;-56
2021/09/26 07:20:51;;;;;;;6.62;2.42;;;;;;;15.90;59.15;100704.61;1756394;80;21022;-55
2021/09/26 07:23:17;;;;;;;7.25;2.52;;;;;;;15.98;59.19;100713.12;1754299;80;22967;-56
2021/09/26 07:25:44;;;;;;;13.28;2.85;;;;;;;16.03;58.95;100718.00;1753785;80;21075;-56
2021/09/26 07:28:10;;;;;;;9.85;2.60;;;;;;;16.09;58.19;100714.25;1756538;80;21086;-56
2021/09/26 07:30:37;;;;;;;10.32;3.40;;;;;;;16.11;58.78;100720.23;1761145;80;20995;-56
2021/09/26 07:33:03;;;;;;;8.55;2.52;;;;;;;16.13;58.41;100727.55;1757543;80;21039;-56
2021/09/26 07:35:29;;;;;;;12.45;2.67;;;;;;;16.16;58.17;100726.42;1753033;80;22049;-55
2021/09/26 07:37:56;;;;;;;10.30;2.30;;;;;;;16.17;58.17;100721.44;1754535;80;21118;-56
2021/09/26 07:40:22;;;;;;;8.75;2.27;;;;;;;16.21;58.48;100728.14;1758163;80;21066;-56
2021/09/26 07:42:49;;;;;;;8.93;2.50;;;;;;;16.26;58.08;100729.02;1754721;80;21056;-57
2021/09/26 07:45:16;;;;;;;8.95;2.90;;;;;;;16.31;58.11;100729.39;1759158;80;21109;-54
2021/09/26 07:47:43;;;;;;;8.08;2.35;;;;;;;16.39;57.20;100720.65;1763881;79;21110;-56
2021/09/26 07:50:10;;;;;;;10.95;2.62;;;;;;;16.53;56.72;100726.27;1757365;80;21706;-56
2021/09/26 07:52:37;;;;;;;8.45;1.90;;;;;;;16.59;57.23;100727.96;1758547;80;23405;-55
2021/09/26 07:55:05;;;;;;;9.58;2.47;;;;;;;16.64;56.05;100737.63;1749956;80;21120;-55
2021/09/26 07:57:32;;;;;;;11.63;2.33;;;;;;;16.63;56.31;100733.33;1754517;80;20972;-56
2021/09/26 07:59:58;;;;;;;11.85;2.90;;;;;;;16.62;54.78;100747.58;1696550;82;21105;-55
2021/09/26 08:02:25;;;;;;;7.03;1.95;;;;;;;16.64;55.08;100739.81;1756087;80;21529;-54
2021/09/26 08:04:52;;;;;;;8.43;3.02;;;;;;;16.65;54.51;100734.83;1756072;80;21132;-55
2021/09/26 08:07:19;;;;;;;9.45;2.70;;;;;;;16.73;54.50;100743.37;1758538;80;21130;-57
2021/09/26 08:09:46;;;;;;;9.88;3.17;;;;;;;16.78;55.00;100745.06;1756573;80;21065;-55
2021/09/26 08:12:13;;;;;;;7.30;2.27;;;;;;;16.83;54.60;100744.11;1696167;83;21814;-55
2021/09/26 08:14:39;;;;;;;10.63;3.17;;;;;;;16.85;54.21;100748.80;1760610;80;21034;-55
2021/09/26 08:17:05;;;;;;;11.73;2.60;;;;;;;16.88;54.42;100748.49;1760169;80;21602;-56
2021/09/26 08:19:36;;;;;;;11.00;2.62;;;;;;;16.94;53.89;100760.31;1760202;80;21090;-55
2021/09/26 08:22:05;;;;;;;7.83;2.00;;;;;;;16.98;53.27;100751.05;1758971;80;21105;-54
2021/09/26 08:24:33;;;;;;;10.82;2.30;;;;;;;17.00;51.75;100746.91;1761871;80;21121;-56
2021/09/26 08:27:01;;;;;;;9.58;2.98;;;;;;;17.01;51.57;100756.54;1759780;80;21055;-55
2021/09/26 08:29:28;;;;;;;11.33;2.45;;;;;;;17.04;51.77;100753.58;1755494;80;22224;-56
2021/09/26 08:31:54;;;;;;;7.70;2.67;;;;;;;17.09;52.62;100755.27;1751972;80;21042;-56
2021/09/26 08:34:21;;;;;;;8.13;1.85;;;;;;;17.19;52.14;100748.02;1754623;80;21038;-56
2021/09/26 08:36:51;;;;;;;12.07;2.95;;;;;;;17.20;51.50;100749.70;1756863;80;21122;-54
2021/09/26 08:39:17;;;;;;;11.55;2.65;;;;;;;17.19;51.37;100755.99;1758568;80;21009;-56
2021/09/26 08:41:43;;;;;;;8.28;2.47;;;;;;;17.11;51.58;100751.95;1763336;80;21027;-55
2021/09/26 08:44:11;;;;;;;9.00;2.77;;;;;;;17.03;52.04;100752.75;1763600;80;21533;-58
2021/09/26 08:46:37;;;;;;;9.53;1.95;;;;;;;17.00;52.96;100765.02;1752249;80;21051;-56
2021/09/26 08:49:04;;;;;;;13.62;3.15;;;;;;;17.01;52.16;100758.72;1736417;80;21130;-57
2021/09/26 08:51:31;;;;;;;9.10;2.10;;;;;;;17.08;52.60;100762.92;1761286;80;21413;-59
2021/09/26 08:53:58;;;;;;;9.33;2.02;;;;;;;17.16;51.13;100759.47;1758830;80;21035;-58
2021/09/26 08:56:25;;;;;;;11.57;2.92;;;;;;;17.25;50.86;100757.21;1761728;80;21479;-59
2021/09/26 08:58:53;;;;;;;9.00;3.00;;;;;;;17.34;51.19;100752.27;1766160;80;21126;-59
2021/09/26 09:01:20;;;;;;;6.25;1.85;;;;;;;17.49;51.34;100760.48;1763524;80;22308;-59
2021/09/26 09:03:47;;;;;;;7.35;2.27;;;;;;;17.57;48.55;100751.72;1757398;80;21054;-59
2021/09/26 09:06:17;;;;;;;8.80;2.55;;;;;;;17.59;48.08;100756.38;1761667;80;21066;-59
2021/09/26 09:08:44;;;;;;;8.60;2.10;;;;;;;17.55;48.71;100747.89;1757070;80;21315;-59
2021/09/26 09:11:11;;;;;;;8.10;2.62;;;;;;;17.52;49.17;100756.69;1758692;80;21039;-59
2021/09/26 09:13:42;;;;;;;8.23;2.02;;;;;;;17.52;48.65;100745.54;1760529;80;22969;-59
2021/09/26 09:16:11;;;;;;;6.37;1.75;;;;;;;17.57;48.88;100763.70;1760422;80;21404;-59
2021/09/26 09:18:56;;;;;;;7.37;2.00;;;;;;;17.58;48.51;100740.89;1761008;80;21038;-59
2021/09/26 09:21:31;;;;;;;6.15;2.42;;;;;;;17.60;47.88;100747.39;1761792;79;21510;-59
2021/09/26 09:24:25;;;;;;;8.40;2.02;;;;;;;17.58;48.85;100749.37;1762093;80;21058;-59
2021/09/26 09:26:47;;;;;;;12.13;2.45;;;;;;;17.58;49.16;100747.55;1749983;80;21154;-58
2021/09/26 09:29:13;;;;;;;7.12;1.82;;;;;;;17.64;49.15;100741.59;1738336;80;21076;-58
2021/09/26 09:31:54;;;;;;;6.92;2.25;;;;;;;17.76;48.99;100736.81;1739717;80;21014;-58
2021/09/26 09:34:37;;;;;;;7.97;2.20;;;;;;;17.87;47.33;100746.86;1734011;80;21060;-58
2021/09/26 09:37:14;;;;;;;7.37;2.10;;;;;;;17.88;47.06;100736.55;1739481;80;21080;-58
2021/09/26 09:39:44;;;;;;;6.10;2.08;;;;;;;17.85;46.64;100740.84;1743863;80;21057;-58
2021/09/26 09:42:21;;;;;;;6.33;1.72;;;;;;;17.84;46.62;100751.98;1730142;80;21030;-57
2021/09/26 09:44:47;;;;;;;7.33;2.05;;;;;;;17.84;46.74;100741.34;1737198;80;21000;-58
2021/09/26 09:47:16;;;;;;;9.90;2.35;;;;;;;17.88;47.67;100746.70;1741406;80;21064;-58
2021/09/26 10:02:14;;;;;;;5.80;1.60;;;;;;;19.31;42.20;100747.23;1854915;75;22557;-59
2021/09/26 10:04:46;;;;;;;6.37;2.12;;;;;;;19.34;42.75;100749.25;1829967;77;20974;-59
2021/09/26 10:07:28;;;;;;;7.92;2.25;;;;;;;19.22;42.60;100754.12;1832748;76;21079;-59
2021/09/26 10:09:55;;;;;;;9.43;2.30;;;;;;;19.14;42.71;100756.80;1823119;76;20971;-58
2021/09/26 10:15:05;;;;;;;5.33;1.60;;;;;;;19.01;42.71;100754.14;1792495;77;22007;-57
2021/09/26 10:17:31;;;;;;;4.95;1.20;;;;;;;18.86;42.38;100750.02;1773564;78;20974;-58
2021/09/26 10:19:58;;;;;;;5.08;1.57;;;;;;;18.75;43.12;100751.14;1777344;78;21077;-57
2021/09/26 10:22:25;;;;;;;8.10;2.10;;;;;;;18.68;43.14;100755.98;1770896;78;21014;-57
2021/09/26 10:24:53;;;;;;;10.23;2.08;;;;;;;18.68;44.04;100765.32;1775651;78;21117;-57
2021/09/26 10:27:22;;;;;;;6.65;1.72;;;;;;;18.71;43.39;100752.48;1770339;78;21081;-57
2021/09/26 10:29:51;;;;;;;6.08;1.52;;;;;;;18.72;42.17;100752.80;1774295;78;21121;-58
2021/09/26 10:32:18;;;;;;;9.13;2.05;;;;;;;18.74;42.17;100757.97;1765500;78;21370;-57
2021/09/26 10:34:44;;;;;;;6.12;1.60;;;;;;;18.74;42.58;100761.48;1741840;78;21133;-59
2021/09/26 10:37:13;;;;;;;5.47;1.60;;;;;;;18.74;42.61;100757.97;1774887;78;21039;-59
2021/09/26 10:39:41;;;;;;;5.97;1.47;;;;;;;18.78;42.45;100750.46;1716661;81;22631;-58
2021/09/26 10:42:15;;;;;;;6.05;1.55;;;;;;;18.83;42.36;100761.48;1720934;81;20954;-58
2021/09/26 10:44:52;;;;;;;6.60;1.85;;;;;;;18.89;42.11;100754.16;1717065;81;21087;-58
2021/09/26 10:47:23;;;;;;;6.28;1.70;;;;;;;18.86;42.05;100750.02;1719025;81;21005;-57
2021/09/26 10:50:11;;;;;;;7.35;2.02;;;;;;;18.80;42.84;100757.81;1716907;81;20974;-58
2021/09/26 10:52:42;;;;;;;8.90;1.83;;;;;;;18.75;43.71;100751.65;1721592;81;20974;-58
2021/09/26 10:55:27;;;;;;;7.72;1.85;;;;;;;18.78;43.73;100751.80;1714566;81;20987;-58
2021/09/26 10:58:02;;;;;;;6.33;2.10;;;;;;;18.79;43.77;100756.14;1722610;81;22068;-57
2021/09/26 11:01:06;;;;;;;7.28;1.92;;;;;;;18.82;42.85;100748.64;1732866;81;21137;-58
2021/09/26 11:03:41;;;;;;;7.37;2.30;;;;;;;18.86;43.48;100754.48;1717057;81;21101;-59
2021/09/26 11:06:29;;;;;;;7.65;1.98;;;;;;;18.95;42.79;100757.50;1721967;81;21082;-58
2021/09/26 11:09:00;;;;;;;9.43;1.67;;;;;;;18.97;42.87;100742.16;1722660;81;21134;-58
2021/09/26 11:11:41;;;;;;;9.88;2.25;;;;;;;18.92;42.20;100741.32;1722300;81;21790;-58
2021/09/26 11:14:08;;;;;;;7.40;1.98;;;;;;;18.84;42.53;100743.99;1720350;81;21743;-58
2021/09/26 11:16:56;;;;;;;4.95;1.60;;;;;;;18.75;42.60;100742.32;1697225;83;21122;-58
2021/09/26 11:19:27;;;;;;;7.95;2.25;;;;;;;18.68;42.76;100747.48;1754321;79;21292;-57
2021/09/26 11:21:58;;;;;;;6.00;1.72;;;;;;;18.62;43.32;100744.14;1750494;79;21141;-58
2021/09/26 11:24:42;;;;;;;8.45;2.67;;;;;;;18.68;44.05;100747.48;1686932;83;21973;-58
2021/09/26 11:27:21;;;;;;;6.87;1.85;;;;;;;18.79;43.01;100745.48;1692779;82;21090;-57
2021/09/26 11:29:56;;;;;;;7.30;1.90;;;;;;;18.81;42.66;100740.33;1761281;79;21047;-58
2021/09/26 11:32:27;;;;;;;5.83;1.80;;;;;;;18.78;42.99;100745.98;1758420;79;21072;-58
2021/09/26 11:34:56;;;;;;;7.15;1.67;;;;;;;18.77;42.74;100754.97;1760605;79;21141;-58
2021/09/26 11:37:43;;;;;;;8.00;2.27;;;;;;;18.74;42.94;100736.64;1760042;79;21099;-57
2021/09/26 11:40:14;;;;;;;6.15;1.87;;;;;;;18.70;43.05;100746.81;1761333;79;21067;-58
2021/09/26 11:42:43;;;;;;;9.98;1.67;;;;;;;18.65;43.33;100751.81;1756484;79;21023;-58
2021/09/26 11:45:12;;;;;;;6.70;1.87;;;;;;;18.65;43.14;100748.32;1760017;79;21063;-59
2021/09/26 11:47:39;;;;;;;8.30;1.98;;;;;;;18.63;42.90;100747.16;1758520;79;21138;-58
2021/09/26 11:50:12;;;;;;;4.35;1.30;;;;;;;18.65;42.61;100740.33;1763304;79;21596;-59